createdAt,value
2018-09-01T00:00:24.451Z,6.40
2018-09-01T00:02:52.304Z,5.20
2018-09-01T00:05:20.123Z,5.40
2018-09-01T00:07:47.940Z,5.97
2018-09-01T00:10:15.806Z,5.37
2018-09-01T00:12:43.634Z,5.87
2018-09-01T00:15:11.394Z,5.27
2018-09-01T00:17:39.211Z,5.60
2018-09-01T00:20:07.055Z,5.20
2018-09-01T00:22:34.814Z,5.33
2018-09-01T00:25:02.687Z,5.47
2018-09-01T00:27:30.490Z,5.13
2018-09-01T00:29:58.379Z,5.33
2018-09-01T00:32:26.157Z,5.77
2018-09-01T00:34:53.955Z,5.93
2018-09-01T00:37:27.042Z,5.80
2018-09-01T00:39:54.753Z,5.73
2018-09-01T00:42:22.543Z,5.80
2018-09-01T00:44:50.358Z,5.63
2018-09-01T00:47:18.280Z,6.20
2018-09-01T00:49:46.178Z,6.40
2018-09-01T00:52:14.055Z,5.87
2018-09-01T00:54:41.814Z,5.70
2018-09-01T00:57:09.632Z,5.70
2018-09-01T00:59:37.471Z,7.10
2018-09-01T01:02:05.258Z,6.13
2018-09-01T01:04:33.134Z,6.63
2018-09-01T01:07:01.067Z,5.80
2018-09-01T01:09:29.022Z,7.27
2018-09-01T01:11:56.887Z,6.63
2018-09-01T01:14:24.828Z,6.77
2018-09-01T01:16:52.751Z,6.87
2018-09-01T01:19:20.533Z,7.40
2018-09-01T01:21:48.435Z,6.03
2018-09-01T01:24:16.300Z,5.93
2018-09-01T01:26:44.200Z,6.10
2018-09-01T01:29:12.000Z,7.30
2018-09-01T01:31:39.800Z,5.87
2018-09-01T01:34:07.644Z,5.90
2018-09-01T01:36:35.435Z,6.23
2018-09-01T01:39:03.410Z,6.30
2018-09-01T01:41:31.248Z,6.20
2018-09-01T01:43:59.079Z,6.00
2018-09-01T01:46:26.843Z,6.67
2018-09-01T01:48:54.683Z,6.03
2018-09-01T01:51:22.462Z,5.57
2018-09-01T01:53:50.259Z,6.00
2018-09-01T01:56:18.161Z,5.97
2018-09-01T01:58:46.008Z,5.77
2018-09-01T02:01:13.883Z,6.30
2018-09-01T02:03:41.668Z,5.90
2018-09-01T02:06:09.535Z,5.47
2018-09-01T02:08:37.383Z,5.60
2018-09-01T02:11:05.261Z,4.73
2018-09-01T02:13:33.185Z,4.83
2018-09-01T02:16:00.975Z,5.87
2018-09-01T02:18:28.746Z,5.20
2018-09-01T02:20:56.527Z,5.10
2018-09-01T02:23:24.468Z,5.37
2018-09-01T02:25:52.264Z,6.03
2018-09-01T02:28:20.039Z,5.70
2018-09-01T02:30:47.911Z,5.27
2018-09-01T02:33:15.689Z,5.07
2018-09-01T02:35:43.544Z,4.57
2018-09-01T02:38:11.328Z,4.87
2018-09-01T02:40:39.120Z,5.17
2018-09-01T02:43:06.955Z,6.27
2018-09-01T02:45:34.752Z,5.07
2018-09-01T02:48:02.582Z,5.47
2018-09-01T02:50:30.447Z,5.73
2018-09-01T02:52:58.277Z,5.30
2018-09-01T02:55:26.132Z,5.50
2018-09-01T02:57:53.946Z,5.23
2018-09-01T03:00:27.236Z,5.77
2018-09-01T03:02:54.999Z,5.20
2018-09-01T03:05:22.796Z,5.77
2018-09-01T03:07:50.624Z,5.93
2018-09-01T03:10:18.587Z,5.43
2018-09-01T03:12:46.378Z,5.80
2018-09-01T03:15:14.193Z,5.13
2018-09-01T03:17:42.095Z,4.80
2018-09-01T03:20:09.855Z,5.53
2018-09-01T03:22:37.754Z,5.57
2018-09-01T03:25:06.259Z,6.00
2018-09-01T03:27:34.042Z,5.60
2018-09-01T03:30:02.814Z,5.50
2018-09-01T03:32:30.744Z,5.27
2018-09-01T03:34:58.575Z,5.43
2018-09-01T03:37:26.402Z,5.90
2018-09-01T03:39:54.191Z,5.80
2018-09-01T03:42:22.043Z,6.23
2018-09-01T03:44:49.811Z,5.80
2018-09-01T03:47:17.671Z,5.77
2018-09-01T03:49:45.572Z,5.83
2018-09-01T03:52:13.451Z,6.27
2018-09-01T03:54:41.308Z,6.10
2018-09-01T03:57:09.096Z,6.50
2018-09-01T03:59:36.874Z,5.97
2018-09-01T04:02:04.653Z,5.87
2018-09-01T04:04:32.426Z,5.97
2018-09-01T04:07:00.290Z,5.97
2018-09-01T04:09:28.208Z,5.47
2018-09-01T04:11:56.100Z,5.93
2018-09-01T04:14:23.863Z,6.23
2018-09-01T04:16:51.687Z,5.70
2018-09-01T04:19:20.307Z,5.40
2018-09-01T04:21:51.095Z,5.80
2018-09-01T04:24:18.849Z,5.90
2018-09-01T04:26:47.151Z,5.43
2018-09-01T04:29:15.656Z,6.03
2018-09-01T04:31:43.418Z,5.90
2018-09-01T04:34:11.239Z,6.30
2018-09-01T04:36:39.049Z,6.37
2018-09-01T04:39:07.892Z,5.50
2018-09-01T04:41:35.683Z,5.43
2018-09-01T04:44:03.588Z,5.77
2018-09-01T04:46:31.462Z,5.70
2018-09-01T04:48:59.477Z,5.33
2018-09-01T04:51:27.322Z,5.13
2018-09-01T04:53:55.317Z,6.27
2018-09-01T04:56:23.207Z,5.90
2018-09-01T04:58:51.064Z,5.87
2018-09-01T05:01:19.019Z,6.73
2018-09-01T05:03:46.894Z,5.30
2018-09-01T05:06:14.832Z,6.20
2018-09-01T05:08:42.646Z,5.20
2018-09-01T05:11:10.550Z,6.10
2018-09-01T05:13:38.538Z,6.53
2018-09-01T05:16:06.690Z,7.03
2018-09-01T05:18:34.536Z,5.57
2018-09-01T05:21:02.490Z,5.60
2018-09-01T05:23:30.645Z,5.63
2018-09-01T05:25:58.603Z,6.03
2018-09-01T05:28:26.616Z,5.70
2018-09-01T05:30:54.648Z,5.90
2018-09-01T05:33:22.627Z,5.20
2018-09-01T05:35:50.459Z,5.00
2018-09-01T05:38:18.532Z,4.00
2018-09-01T05:40:46.562Z,4.90
2018-09-01T05:43:14.470Z,5.33
2018-09-01T05:45:42.455Z,4.57
2018-09-01T05:48:10.406Z,5.10
2018-09-01T05:50:38.416Z,4.90
2018-09-01T05:53:06.419Z,5.10
2018-09-01T05:55:35.519Z,4.97
2018-09-01T05:58:03.655Z,5.47
2018-09-01T06:00:36.138Z,5.30
2018-09-01T06:03:04.869Z,4.80
2018-09-01T06:05:32.680Z,4.73
2018-09-01T06:08:00.588Z,4.67
2018-09-01T06:10:28.532Z,5.37
2018-09-01T06:12:56.488Z,5.30
2018-09-01T06:15:24.590Z,4.80
2018-09-01T06:17:52.542Z,5.03
2018-09-01T06:20:20.433Z,5.10
2018-09-01T06:22:48.267Z,4.17
2018-09-01T06:25:16.028Z,4.93
2018-09-01T06:27:46.486Z,4.90
2018-09-01T06:30:18.555Z,5.07
2018-09-01T06:32:46.521Z,5.13
2018-09-01T06:35:14.509Z,4.93
2018-09-01T06:37:42.546Z,4.53
2018-09-01T06:40:10.258Z,4.30
2018-09-01T06:42:38.163Z,5.20
2018-09-01T06:45:06.198Z,4.70
2018-09-01T06:47:34.182Z,4.90
2018-09-01T06:50:02.125Z,5.17
2018-09-01T06:52:30.003Z,5.07
2018-09-01T06:54:57.835Z,5.17
2018-09-01T06:57:25.951Z,4.70
2018-09-01T06:59:54.036Z,4.63
2018-09-01T07:02:21.887Z,4.37
2018-09-01T07:04:49.750Z,5.70
2018-09-01T07:07:17.630Z,5.13
2018-09-01T07:09:45.538Z,4.83
2018-09-01T07:12:13.595Z,4.60
2018-09-01T07:14:41.731Z,5.63
2018-09-01T07:17:09.670Z,5.07
2018-09-01T07:19:37.651Z,5.00
2018-09-01T07:22:05.724Z,5.50
2018-09-01T07:24:33.559Z,5.80
2018-09-01T07:27:01.346Z,6.13
2018-09-01T07:29:29.210Z,4.90
2018-09-01T07:31:57.163Z,4.93
2018-09-01T07:34:25.163Z,5.87
2018-09-01T07:36:52.923Z,5.40
2018-09-01T07:39:20.892Z,5.80
2018-09-01T07:41:48.842Z,5.17
2018-09-01T07:44:16.768Z,5.20
2018-09-01T07:46:45.542Z,5.60
2018-09-01T07:49:13.376Z,4.97
2018-09-01T07:51:41.291Z,5.23
2018-09-01T07:54:09.116Z,6.10
2018-09-01T07:56:37.270Z,6.37
2018-09-01T07:59:05.227Z,5.67
2018-09-01T08:01:33.183Z,7.07
2018-09-01T08:04:01.086Z,7.33
2018-09-01T08:06:28.983Z,5.97
2018-09-01T08:08:57.066Z,6.70
2018-09-01T08:11:25.206Z,5.70
2018-09-01T08:13:53.338Z,6.50
2018-09-01T08:16:21.019Z,6.30
2018-09-01T08:18:48.974Z,5.50
2018-09-01T08:21:16.814Z,5.97
2018-09-01T08:23:44.767Z,6.03
2018-09-01T08:26:12.758Z,6.37
2018-09-01T08:28:40.651Z,5.43
2018-09-01T08:31:08.652Z,6.57
2018-09-01T08:33:36.740Z,5.53
2018-09-01T08:36:04.866Z,5.73
2018-09-01T08:38:32.838Z,5.70
2018-09-01T08:41:00.992Z,5.70
2018-09-01T08:43:28.943Z,5.63
2018-09-01T08:45:56.903Z,5.53
2018-09-01T08:48:24.747Z,5.73
2018-09-01T08:50:52.578Z,5.50
2018-09-01T08:53:20.519Z,5.67
2018-09-01T08:55:48.434Z,5.90
2018-09-01T08:58:16.300Z,5.57
2018-09-01T09:00:44.275Z,5.10
2018-09-01T09:03:12.127Z,5.77
2018-09-01T09:05:40.360Z,5.57
2018-09-01T09:08:08.171Z,5.83
2018-09-01T09:10:36.335Z,6.17
2018-09-01T09:13:04.206Z,5.33
2018-09-01T09:15:32.066Z,6.00
2018-09-01T09:17:59.967Z,5.40
2018-09-01T09:20:27.991Z,5.30
2018-09-01T09:22:56.112Z,5.23
2018-09-01T09:25:24.306Z,6.63
2018-09-01T09:27:52.115Z,5.30
2018-09-01T09:30:20.047Z,5.73
2018-09-01T09:32:47.950Z,5.07
2018-09-01T09:35:15.788Z,5.13
2018-09-01T09:37:43.694Z,6.07
2018-09-01T09:40:11.753Z,5.33
2018-09-01T09:42:39.650Z,6.00
2018-09-01T09:45:07.820Z,5.73
2018-09-01T09:47:35.795Z,5.10
2018-09-01T09:50:03.787Z,4.93
2018-09-01T09:52:31.944Z,5.50
2018-09-01T09:54:59.919Z,5.47
2018-09-01T09:57:27.879Z,5.83
2018-09-01T09:59:55.835Z,5.63
2018-09-01T10:02:23.617Z,6.03
2018-09-01T10:04:51.536Z,5.67
2018-09-01T10:07:19.363Z,5.47
2018-09-01T10:09:47.271Z,5.50
2018-09-01T10:12:15.059Z,5.50
2018-09-01T10:14:42.962Z,6.23
2018-09-01T10:17:10.746Z,8.73
2018-09-01T10:19:38.567Z,6.67
2018-09-01T10:22:06.348Z,5.03
2018-09-01T10:24:34.269Z,5.10
2018-09-01T10:27:02.110Z,5.60
2018-09-01T10:29:29.852Z,5.27
2018-09-01T10:31:57.710Z,5.50
2018-09-01T10:34:25.539Z,4.80
2018-09-01T10:36:53.368Z,5.20
2018-09-01T10:39:21.234Z,5.20
2018-09-01T10:41:49.108Z,5.20
2018-09-01T10:44:17.015Z,4.93
2018-09-01T10:46:44.856Z,5.13
2018-09-01T10:49:12.779Z,5.23
2018-09-01T10:51:40.669Z,5.57
2018-09-01T10:54:08.430Z,6.20
2018-09-01T10:56:36.271Z,5.07
2018-09-01T10:59:04.129Z,5.00
2018-09-01T11:01:31.964Z,4.70
2018-09-01T11:03:59.789Z,5.00
2018-09-01T11:06:27.684Z,5.33
2018-09-01T11:08:55.446Z,5.40
2018-09-01T11:11:23.335Z,5.13
2018-09-01T11:13:51.114Z,5.53
2018-09-01T11:16:18.895Z,5.17
2018-09-01T11:18:46.688Z,4.90
2018-09-01T11:21:14.456Z,5.03
2018-09-01T11:23:42.326Z,20.20
2018-09-01T11:26:10.174Z,22.77
2018-09-01T11:28:38.030Z,4.97
2018-09-01T11:31:06.287Z,4.70
2018-09-01T11:33:34.218Z,5.27
2018-09-01T11:36:02.132Z,5.00
2018-09-01T11:38:29.906Z,5.13
2018-09-01T11:40:57.767Z,5.03
2018-09-01T11:43:25.521Z,4.90
2018-09-01T11:45:53.447Z,5.17
2018-09-01T11:48:21.467Z,5.07
2018-09-01T11:50:49.311Z,4.43
2018-09-01T11:53:17.346Z,4.77
2018-09-01T11:55:45.099Z,5.27
2018-09-01T11:58:13.128Z,4.90
2018-09-01T12:00:41.066Z,5.70
2018-09-01T12:03:08.964Z,5.37
2018-09-01T12:05:36.935Z,5.70
2018-09-01T12:08:04.712Z,5.00
2018-09-01T12:10:32.639Z,4.70
2018-09-01T12:13:00.531Z,5.33
2018-09-01T12:15:28.394Z,5.20
2018-09-01T12:17:56.182Z,5.47
2018-09-01T12:20:24.034Z,5.10
2018-09-01T12:22:51.870Z,5.57
2018-09-01T12:25:19.703Z,5.13
2018-09-01T12:27:47.615Z,4.97
2018-09-01T12:30:15.615Z,5.40
2018-09-01T12:32:43.730Z,4.70
2018-09-01T12:35:11.833Z,5.83
2018-09-01T12:37:39.815Z,5.10
2018-09-01T12:40:07.833Z,5.40
2018-09-01T12:42:35.926Z,5.50
2018-09-01T12:45:04.167Z,5.07
2018-09-01T12:47:32.155Z,4.77
2018-09-01T12:50:00.144Z,5.63
2018-09-01T12:52:27.961Z,5.00
2018-09-01T12:54:55.975Z,5.13
2018-09-01T12:57:23.963Z,5.47
2018-09-01T12:59:52.103Z,5.30
2018-09-01T13:02:21.228Z,4.77
2018-09-01T13:04:49.148Z,5.93
2018-09-01T13:07:17.074Z,4.67
2018-09-01T13:09:45.031Z,5.67
2018-09-01T13:12:13.183Z,4.87
2018-09-01T13:14:41.634Z,4.97
2018-09-01T13:17:09.622Z,5.60
2018-09-01T13:19:37.598Z,4.73
2018-09-01T13:22:05.523Z,5.20
2018-09-01T13:24:33.585Z,5.10
2018-09-01T13:27:01.459Z,4.87
2018-09-01T13:29:29.424Z,5.33
2018-09-01T13:31:57.394Z,4.93
2018-09-01T13:34:25.571Z,5.60
2018-09-01T13:36:53.477Z,5.40
2018-09-01T13:39:21.449Z,5.97
2018-09-01T13:41:49.347Z,4.97
2018-09-01T13:44:17.436Z,5.30
2018-09-01T13:46:45.466Z,5.27
2018-09-01T13:49:13.434Z,4.90
2018-09-01T13:51:41.315Z,5.07
2018-09-01T13:54:09.255Z,6.77
2018-09-01T13:56:37.091Z,6.93
2018-09-01T13:59:05.147Z,6.07
2018-09-01T14:01:33.087Z,5.40
2018-09-01T14:04:01.127Z,5.83
2018-09-01T14:06:28.967Z,5.97
2018-09-01T14:08:56.927Z,4.93
2018-09-01T14:11:24.822Z,5.43
2018-09-01T14:13:52.731Z,5.00
2018-09-01T14:16:20.559Z,6.03
2018-09-01T14:18:48.344Z,4.77
2018-09-01T14:21:16.403Z,4.70
2018-09-01T14:23:44.372Z,5.13
2018-09-01T14:26:12.292Z,5.27
2018-09-01T14:28:40.268Z,6.37
2018-09-01T14:31:08.458Z,4.90
2018-09-01T14:33:36.300Z,5.20
2018-09-01T14:36:04.348Z,4.70
2018-09-01T14:38:32.284Z,4.67
2018-09-01T14:41:00.146Z,5.00
2018-09-01T14:43:28.116Z,4.70
2018-09-01T14:45:56.120Z,5.13
2018-09-01T14:48:24.220Z,5.20
2018-09-01T14:50:52.083Z,5.33
2018-09-01T14:53:20.166Z,4.77
2018-09-01T14:55:48.047Z,5.03
2018-09-01T14:58:15.892Z,5.00
2018-09-01T15:00:43.843Z,5.20
2018-09-01T15:03:11.735Z,5.07
2018-09-01T15:05:39.584Z,5.27
2018-09-01T15:08:07.628Z,5.30
2018-09-01T15:10:35.472Z,5.50
2018-09-01T15:13:03.451Z,5.37
2018-09-01T15:15:31.258Z,5.17
2018-09-01T15:17:59.221Z,5.03
2018-09-01T15:20:27.321Z,5.17
2018-09-01T15:22:55.162Z,4.97
2018-09-01T15:25:23.007Z,5.03
2018-09-01T15:27:51.007Z,5.77
2018-09-01T15:30:18.887Z,6.07
2018-09-01T15:32:46.791Z,6.03
2018-09-01T15:35:14.818Z,5.87
2018-09-01T15:37:42.975Z,6.27
2018-09-01T15:40:10.804Z,7.20
2018-09-01T15:42:38.686Z,5.90
2018-09-01T15:45:06.871Z,5.47
2018-09-01T15:47:34.940Z,5.63
2018-09-01T15:50:02.797Z,5.83
2018-09-01T15:52:30.803Z,6.20
2018-09-01T15:54:58.622Z,5.17
2018-09-01T15:57:26.533Z,5.23
2018-09-01T15:59:54.420Z,5.07
2018-09-01T16:02:22.279Z,6.07
2018-09-01T16:04:50.204Z,5.80
2018-09-01T16:07:18.248Z,5.67
2018-09-01T16:09:46.323Z,6.80
2018-09-01T16:12:14.373Z,5.70
2018-09-01T16:14:42.223Z,5.37
2018-09-01T16:17:10.155Z,5.50
2018-09-01T16:19:38.007Z,5.70
2018-09-01T16:22:05.974Z,5.23
2018-09-01T16:24:33.912Z,5.67
2018-09-01T16:27:01.762Z,5.60
2018-09-01T16:29:29.702Z,6.07
2018-09-01T16:31:57.730Z,5.50
2018-09-01T16:34:25.872Z,6.67
2018-09-01T16:36:53.735Z,6.67
2018-09-01T16:39:21.659Z,6.80
2018-09-01T16:41:49.548Z,6.57
2018-09-01T16:44:17.498Z,6.70
2018-09-01T16:46:45.388Z,6.10
2018-09-01T16:49:13.168Z,5.73
2018-09-01T16:51:40.992Z,6.70
2018-09-01T16:54:08.896Z,5.97
2018-09-01T16:56:36.927Z,5.83
2018-09-01T16:59:04.922Z,6.20
2018-09-01T17:01:32.834Z,6.93
2018-09-01T17:04:00.906Z,9.17
2018-09-01T17:06:28.854Z,8.80
2018-09-01T17:08:56.747Z,8.27
2018-09-01T17:11:24.632Z,7.87
2018-09-01T17:13:52.468Z,8.97
2018-09-01T17:16:20.255Z,9.57
2018-09-01T17:18:48.027Z,7.83
2018-09-01T17:21:15.823Z,7.60
2018-09-01T17:23:43.654Z,7.83
2018-09-01T17:26:11.521Z,7.10
2018-09-01T17:28:39.288Z,6.47
2018-09-01T17:31:07.574Z,7.37
2018-09-01T17:33:35.579Z,7.63
2018-09-01T17:36:03.354Z,7.40
2018-09-01T17:38:31.142Z,7.03
2018-09-01T17:40:58.916Z,7.03
2018-09-01T17:43:26.724Z,7.77
2018-09-01T17:45:54.618Z,7.83
2018-09-01T17:48:22.543Z,7.80
2018-09-01T17:50:50.659Z,8.37
2018-09-01T17:53:18.440Z,8.10
2018-09-01T17:55:46.231Z,8.17
2018-09-01T17:58:14.107Z,7.63
2018-09-01T18:00:42.028Z,7.40
2018-09-01T18:03:10.654Z,7.33
2018-09-01T18:05:38.634Z,7.00
2018-09-01T18:08:06.551Z,7.30
2018-09-01T18:10:34.466Z,6.87
2018-09-01T18:13:02.378Z,5.80
2018-09-01T18:15:30.295Z,6.13
2018-09-01T18:17:58.243Z,7.33
2018-09-01T18:20:26.138Z,10.63
2018-09-01T18:22:54.277Z,9.67
2018-09-01T18:25:22.130Z,9.73
2018-09-01T18:27:50.001Z,8.00
2018-09-01T18:30:17.939Z,7.77
2018-09-01T18:32:45.834Z,7.17
2018-09-01T18:35:13.927Z,7.60
2018-09-01T18:37:41.770Z,7.47
2018-09-01T18:40:09.572Z,7.43
2018-09-01T18:42:37.390Z,7.20
2018-09-01T18:45:05.827Z,7.30
2018-09-01T18:47:33.776Z,6.60
2018-09-01T18:50:01.577Z,7.90
2018-09-01T18:52:29.491Z,7.93
2018-09-01T18:54:57.502Z,7.57
2018-09-01T18:57:25.287Z,8.57
2018-09-01T18:59:53.203Z,7.73
2018-09-01T19:02:21.123Z,7.50
2018-09-01T19:04:49.003Z,8.63
2018-09-01T19:07:16.894Z,7.80
2018-09-01T19:09:44.796Z,7.50
2018-09-01T19:12:12.643Z,7.60
2018-09-01T19:14:40.475Z,7.57
2018-09-01T19:17:08.391Z,7.70
2018-09-01T19:19:36.290Z,7.63
2018-09-01T19:22:04.119Z,7.80
2018-09-01T19:24:32.094Z,8.07
2018-09-01T19:27:00.016Z,7.93
2018-09-01T19:29:27.979Z,7.87
2018-09-01T19:31:56.023Z,6.47
2018-09-01T19:34:23.903Z,6.43
2018-09-01T19:36:51.778Z,7.40
2018-09-01T19:39:19.775Z,8.73
2018-09-01T19:41:47.672Z,7.70
2018-09-01T19:44:15.676Z,9.17
2018-09-01T19:46:43.509Z,8.77
2018-09-01T19:49:11.443Z,8.37
2018-09-01T19:51:39.447Z,9.00
2018-09-01T19:54:07.651Z,8.17
2018-09-01T19:56:35.545Z,8.57
2018-09-01T19:59:03.399Z,7.53
2018-09-01T20:01:31.422Z,7.83
2018-09-01T20:03:59.426Z,7.40
2018-09-01T20:06:27.311Z,7.23
2018-09-01T20:08:55.181Z,8.23
2018-09-01T20:11:23.147Z,7.77
2018-09-01T20:13:51.035Z,7.70
2018-09-01T20:16:18.935Z,8.63
2018-09-01T20:18:46.866Z,7.73
2018-09-01T20:21:14.675Z,7.77
2018-09-01T20:23:42.595Z,7.93
2018-09-01T20:26:10.523Z,7.63
2018-09-01T20:28:38.425Z,7.50
2018-09-01T20:31:06.358Z,8.70
2018-09-01T20:33:34.262Z,7.30
2018-09-01T20:36:02.151Z,7.47
2018-09-01T20:38:30.002Z,8.17
2018-09-01T20:40:57.878Z,7.90
2018-09-01T20:43:26.087Z,7.77
2018-09-01T20:45:53.958Z,8.93
2018-09-01T20:48:21.798Z,7.67
2018-09-01T20:50:49.757Z,8.77
2018-09-01T20:53:17.791Z,8.20
2018-09-01T20:55:45.637Z,7.40
2018-09-01T20:58:13.470Z,7.53
2018-09-01T21:00:41.634Z,7.80
2018-09-01T21:03:09.565Z,7.33
2018-09-01T21:05:37.409Z,7.57
2018-09-01T21:08:05.398Z,8.03
2018-09-01T21:10:33.263Z,8.07
2018-09-01T21:13:01.171Z,6.63
2018-09-01T21:15:29.063Z,7.13
2018-09-01T21:17:57.022Z,7.63
2018-09-01T21:20:24.894Z,9.50
2018-09-01T21:22:52.715Z,8.10
2018-09-01T21:25:20.787Z,7.97
2018-09-01T21:27:48.850Z,7.90
2018-09-01T21:30:16.762Z,7.93
2018-09-01T21:32:44.710Z,7.30
2018-09-01T21:35:12.532Z,7.10
2018-09-01T21:37:40.435Z,7.83
2018-09-01T21:40:08.284Z,8.43
2018-09-01T21:42:36.204Z,8.10
2018-09-01T21:45:04.143Z,7.83
2018-09-01T21:47:32.140Z,8.10
2018-09-01T21:49:59.975Z,7.30
2018-09-01T21:52:27.942Z,7.40
2018-09-01T21:54:55.908Z,8.03
2018-09-01T21:57:23.767Z,8.20
2018-09-01T21:59:51.730Z,8.13
2018-09-01T22:02:25.634Z,8.43
2018-09-01T22:04:58.787Z,8.10
2018-09-01T22:07:26.685Z,8.30
2018-09-01T22:09:55.216Z,9.47
2018-09-01T22:12:23.507Z,7.87
2018-09-01T22:14:52.563Z,7.73
2018-09-01T22:17:20.893Z,8.83
2018-09-01T22:19:49.108Z,7.60
2018-09-01T22:22:16.956Z,8.23
2018-09-01T22:24:44.959Z,8.13
2018-09-01T22:27:12.889Z,7.53
2018-09-01T22:29:40.847Z,8.50
2018-09-01T22:32:08.735Z,7.70
2018-09-01T22:34:36.658Z,8.73
2018-09-01T22:37:04.699Z,7.67
2018-09-01T22:39:32.739Z,8.10
2018-09-01T22:42:00.718Z,7.00
2018-09-01T22:44:28.634Z,7.03
2018-09-01T22:46:58.090Z,7.37
2018-09-01T22:49:25.971Z,8.07
2018-09-01T22:51:53.896Z,7.73
2018-09-01T22:54:21.723Z,7.33
2018-09-01T22:56:49.626Z,8.03
2018-09-01T22:59:17.514Z,6.97
2018-09-01T23:01:45.414Z,7.03
2018-09-01T23:04:13.435Z,7.47
2018-09-01T23:06:41.350Z,7.47
2018-09-01T23:09:09.570Z,6.87
2018-09-01T23:11:37.630Z,7.67
2018-09-01T23:14:05.558Z,7.60
2018-09-01T23:16:33.467Z,7.17
2018-09-01T23:19:01.247Z,7.23
2018-09-01T23:21:29.118Z,7.40
2018-09-01T23:23:56.887Z,7.37
2018-09-01T23:26:24.750Z,6.93
2018-09-01T23:28:52.595Z,6.83
2018-09-01T23:31:20.500Z,7.13
2018-09-01T23:33:48.278Z,7.63
2018-09-01T23:36:16.091Z,6.93
2018-09-01T23:38:44.004Z,7.33
2018-09-01T23:41:11.867Z,7.43
2018-09-01T23:43:39.642Z,6.67
2018-09-01T23:46:07.824Z,7.03
2018-09-01T23:48:35.628Z,6.70
2018-09-01T23:51:03.610Z,7.67
2018-09-01T23:53:31.460Z,7.13
2018-09-01T23:55:59.442Z,7.10
2018-09-01T23:58:27.366Z,7.00
